Welcome to Northern Hawkes Bay. New Zealand.
PWS Header
      nz Flag



Hit Counter


W3C Valid W3C Valid logo


    Wairoa

Select any of the Stations below to visit their websites.










Historic Data from Weather Underground
Select the location of interest below. Wairoa is the default. Please have patience, this Data is slow to load in.
Northern Hawkes Bay Historical Data
Daily Summary for May 19, 2017 Units:  English    Metric   Both
« Previous Day
Next Day »
Daily Weekly Monthly Yearly Custom
  High: Low: Average:
Temperature: 69.3 °F 47.5 °F 55.2 °F
Dew Point: 49.3 °F 37.9 °F 43.5 °F
Humidity: 99% 41% 66%
Wind Speed: 17.4mph 0mph 4.8mph
Wind Gust: 32mph - -
Wind- - West
Pressure: 29.9 in 29.7 in -
Precipitation: 0 in    
Historical Graphs
 
 
Tabular Data for May 19, 2017
Time Temperature Dew Point Pressure Wind Wind Speed Wind Gust Humidity Rainfall Rate (Hourly) solar
00:03 49.5 °F 49.3 °F 29.7 in NNW 2.2 mph 3.8 mph 99% 0 in 0 W/m2
00:08 49.5 °F 49.3 °F 29.7 in NW 2.2 mph 4.5 mph 99% 0 in 0 W/m2
00:13 49.3 °F 48.7 °F 29.7 in NW 1.6 mph 4.5 mph 98% 0 in 0 W/m2
00:18 49.1 °F 48.6 °F 29.7 in NW 1.6 mph 3.8 mph 98% 0 in 0 W/m2
00:23 49.1 °F 48.4 °F 29.7 in NW 1.6 mph 3.1 mph 97% 0 in 0 W/m2
00:28 48.9 °F 48 °F 29.7 in NW 1.6 mph 3.1 mph 97% 0 in 0 W/m2
00:38 48.9 °F 47.8 °F 29.7 in NW 2.2 mph 3.1 mph 96% 0 in 0 W/m2
00:55 49.1 °F 48 °F 29.7 in NW 2.2 mph 4.5 mph 96% 0 in 0 W/m2
01:00 49.6 °F 48.4 °F 29.7 in North 2.2 mph 4.5 mph 95% 0 in 0 W/m2
01:06 50.2 °F 48.2 °F 29.7 in North 3.1 mph 6 mph 93% 0 in 0 W/m2
01:11 50.4 °F 48 °F 29.7 in North 3.1 mph 6 mph 92% 0 in 0 W/m2
01:16 50.5 °F 47.7 °F 29.7 in North 3.8 mph 6 mph 90% 0 in 0 W/m2
01:21 50.9 °F 47.8 °F 29.7 in North 0.7 mph 6 mph 89% 0 in 0 W/m2
01:26 50.7 °F 47.3 °F 29.7 in NNW 1.6 mph 6 mph 88% 0 in 0 W/m2
01:31 50.2 °F 46.6 °F 29.7 in NW 2.2 mph 3.8 mph 87% 0 in 0 W/m2
01:36 49.5 °F 46 °F 29.7 in NW 1.6 mph 4.5 mph 88% 0 in 0 W/m2
01:41 49.1 °F 45.7 °F 29.7 in NW 3.8 mph 5.4 mph 88% 0 in 0 W/m2
01:46 48.9 °F 45.9 °F 29.7 in NW 3.8 mph 6.9 mph 89% 0 in 0 W/m2
01:51 48.9 °F 45.9 °F 29.7 in NW 3.1 mph 6.9 mph 89% 0 in 0 W/m2
01:56 48.9 °F 46 °F 29.7 in NW 4.5 mph 7.6 mph 90% 0 in 0 W/m2
02:01 48.9 °F 46 °F 29.7 in NW 3.1 mph 7.6 mph 90% 0 in 0 W/m2
02:07 48.7 °F 45.9 °F 29.7 in NW 1.6 mph 6 mph 90% 0 in 0 W/m2
02:12 48.6 °F 45.9 °F 29.7 in NW 0.7 mph 3.8 mph 90% 0 in 0 W/m2
02:17 48.4 °F 45.7 °F 29.7 in Calm   3.1 mph 90% 0 in 0 W/m2
02:22 48 °F 45.5 °F 29.7 in Calm   3.1 mph 91% 0 in 0 W/m2
02:27 47.7 °F 45.1 °F 29.7 in NNE 1.6 mph 3.8 mph 91% 0 in 0 W/m2
02:32 47.7 °F 45.5 °F 29.7 in NNE 0.7 mph 3.8 mph 92% 0 in 0 W/m2
02:37 48.7 °F 46.2 °F 29.7 in North 3.1 mph 5.4 mph 91% 0 in 0 W/m2
02:42 49.5 °F 46 °F 29.7 in North 3.8 mph 7.6 mph 88% 0 in 0 W/m2
02:47 50.4 °F 45.7 °F 29.7 in NNW 2.2 mph 7.6 mph 84% 0 in 0 W/m2
02:57 50.5 °F 44.6 °F 29.7 in Calm   3.8 mph 80% 0 in 0 W/m2
03:02 50.2 °F 44.2 °F 29.7 in Calm   3.1 mph 80% 0 in 0 W/m2
03:07 49.6 °F 44.1 °F 29.7 in Calm   1.6 mph 81% 0 in 0 W/m2
03:12 49.1 °F 44.2 °F 29.7 in Calm   2.2 mph 83% 0 in 0 W/m2
03:17 48.7 °F 43.9 °F 29.7 in Calm   2.2 mph 83% 0 in 0 W/m2
03:22 48.6 °F 44.1 °F 29.7 in Calm     84% 0 in 0 W/m2
03:27 48.7 °F 44.1 °F 29.7 in Calm     84% 0 in 0 W/m2
03:32 49.1 °F 44.4 °F 29.7 in Calm   1.6 mph 84% 0 in 0 W/m2
03:37 48.7 °F 43.9 °F 29.7 in North 0.7 mph 3.8 mph 83% 0 in 0 W/m2
03:42 48.4 °F 43.2 °F 29.7 in Calm   3.8 mph 82% 0 in 0 W/m2
03:47 47.5 °F 42.6 °F 29.7 in Calm   2.2 mph 83% 0 in 0 W/m2
03:52 47.7 °F 43.3 °F 29.7 in NNW 1.6 mph 3.1 mph 85% 0 in 0 W/m2
03:57 48.4 °F 43.5 °F 29.7 in Calm   3.1 mph 83% 0 in 0 W/m2
04:02 48.6 °F 43.3 °F 29.7 in NNE 2.2 mph 3.1 mph 82% 0 in 0 W/m2
04:07 49.1 °F 43.2 °F 29.7 in NE 0.7 mph 3.1 mph 80% 0 in 0 W/m2
04:12 49.6 °F 43.2 °F 29.7 in Calm   3.1 mph 78% 0 in 0 W/m2
04:17 49.6 °F 42.6 °F 29.7 in NNE 1.6 mph 3.1 mph 77% 0 in 0 W/m2
04:22 50 °F 42.4 °F 29.7 in NNE 1.6 mph 3.1 mph 75% 0 in 0 W/m2
04:27 49.8 °F 42.6 °F 29.7 in Calm   3.8 mph 76% 0 in 0 W/m2
04:32 49.3 °F 42.1 °F 29.7 in NE 2.2 mph 3.8 mph 76% 0 in 0 W/m2
04:37 49.3 °F 42.4 °F 29.7 in NE 1.6 mph 3.8 mph 77% 0 in 0 W/m2
04:42 49.3 °F 42.4 °F 29.7 in NE 0.7 mph 3.8 mph 77% 0 in 0 W/m2
04:47 49.1 °F 42.3 °F 29.7 in North 1.6 mph 3.8 mph 77% 0 in 0 W/m2
04:52 49.5 °F 42.6 °F 29.7 in North 2.2 mph 3.8 mph 77% 0 in 0 W/m2
04:57 49.3 °F 42.1 °F 29.8 in Calm   3.8 mph 76% 0 in 0 W/m2
05:02 49.5 °F 42.3 °F 29.8 in NE 0.7 mph 3.8 mph 76% 0 in 0 W/m2
05:07 50 °F 42.4 °F 29.8 in NE 0.7 mph 2.2 mph 75% 0 in 0 W/m2
05:12 50 °F 42.1 °F 29.8 in NNE 2.2 mph 3.8 mph 74% 0 in 0 W/m2
05:17 50.2 °F 42.3 °F 29.8 in Calm   3.8 mph 74% 0 in 0 W/m2
05:22 50.4 °F 42.4 °F 29.8 in East 0.7 mph 3.1 mph 74% 0 in 0 W/m2
05:27 50 °F 42.1 °F 29.8 in Calm   3.1 mph 74% 0 in 0 W/m2
05:32 49.3 °F 42.1 °F 29.8 in West 0.7 mph 3.8 mph 76% 0 in 0 W/m2
05:37 48.9 °F 42.1 °F 29.8 in WNW 2.2 mph 3.8 mph 77% 0 in 0 W/m2
05:42 49.1 °F 42.4 °F 29.8 in NW 3.8 mph 5.4 mph 78% 0 in 0 W/m2
05:58 53.4 °F 48.9 °F 29.8 in SSW 15.9 mph 23.5 mph 85% 0 in 0 W/m2
06:04 53.2 °F 48.9 °F 29.8 in South 17.4 mph 27.3 mph 85% 0 in 0 W/m2
06:09 52.9 °F 48.2 °F 29.8 in South 13.6 mph 29.8 mph 84% 0 in 0 W/m2
06:14 53.1 °F 48.4 °F 29.8 in South 12.1 mph 29.8 mph 84% 0 in 0 W/m2
06:19 53.1 °F 48.7 °F 29.8 in South 13 mph 28.9 mph 85% 0 in 0 W/m2
06:24 53.1 °F 48.4 °F 29.8 in South 15.2 mph 32 mph 84% 0 in 0 W/m2
06:29 52.7 °F 48 °F 29.8 in South 12.1 mph 32 mph 84% 0 in 0 W/m2
06:39 52.5 °F 47.8 °F 29.8 in SSW 13.6 mph 22.8 mph 84% 0 in 0 W/m2
06:44 52.3 °F 47.7 °F 29.8 in SSW 13 mph 22.8 mph 84% 0 in 0 W/m2
06:49 52.3 °F 48 °F 29.8 in SSW 15.2 mph 22.8 mph 85% 0 in 0 W/m2
06:54 52.3 °F 47.7 °F 29.8 in South 9.2 mph 22.8 mph 84% 0 in 0 W/m2
06:59 52.2 °F 47.1 °F 29.9 in SSW 12.1 mph 22.8 mph 83% 0 in 0 W/m2
07:04 52.2 °F 46.8 °F 29.9 in SSW 9.2 mph 24.4 mph 82% 0 in 0 W/m2
07:09 52 °F 46.8 °F 29.9 in SSW 11.4 mph 24.4 mph 82% 0 in 2 W/m2
07:14 52 °F 46.8 °F 29.9 in South 9.2 mph 19 mph 82% 0 in 4 W/m2
07:19 52 °F 45.3 °F 29.9 in South 9.2 mph 20.6 mph 78% 0 in 6 W/m2
07:24 52.3 °F 45.7 °F 29.9 in SSW 7.6 mph 20.6 mph 78% 0 in 8 W/m2
07:29 52.3 °F 45 °F 29.9 in SW 11.4 mph 17.4 mph 76% 0 in 11 W/m2
07:34 52.5 °F 45.1 °F 29.9 in SSW 10.7 mph 17.4 mph 76% 0 in 12 W/m2
07:39 52.3 °F 45 °F 29.9 in SSW 13 mph 17.4 mph 76% 0 in 17 W/m2
07:44 52.3 °F 44.8 °F 29.9 in SSW 8.3 mph 19.7 mph 75% 0 in 20 W/m2
07:49 52.3 °F 45.3 °F 29.9 in SW 9.2 mph 19.7 mph 77% 0 in 26 W/m2
07:54 52.3 °F 45 °F 29.9 in SW 8.3 mph 16.8 mph 76% 0 in 56 W/m2
07:59 52.7 °F 45.3 °F 29.9 in SW 8.3 mph 16.8 mph 76% 0 in 101 W/m2
08:04 52.9 °F 45.5 °F 29.9 in SSW 8.3 mph 15.2 mph 76% 0 in 118 W/m2
08:09 53.4 °F 45.7 °F 29.9 in SSW 6.9 mph 15.2 mph 75% 0 in 135 W/m2
08:14 54 °F 45.9 °F 29.9 in SW 6 mph 15.2 mph 74% 0 in 155 W/m2
08:19 54.3 °F 46.2 °F 29.9 in SW 4.5 mph 15.2 mph 74% 0 in 162 W/m2
08:24 54.7 °F 46.6 °F 29.9 in WSW 1.6 mph 13 mph 74% 0 in 182 W/m2
08:29 55.6 °F 47.5 °F 29.9 in WSW 5.4 mph 7.6 mph 74% 0 in 123 W/m2
08:34 55.8 °F 47.1 °F 29.9 in SW 3.8 mph 7.6 mph 73% 0 in 208 W/m2
08:39 56.3 °F 47.5 °F 29.9 in WSW 5.4 mph 7.6 mph 72% 0 in 228 W/m2
08:44 56.3 °F 46.8 °F 29.9 in WSW 3.8 mph 7.6 mph 70% 0 in 147 W/m2
08:49 55.9 °F 46.8 °F 29.9 in SW 3.1 mph 7.6 mph 71% 0 in 251 W/m2
08:54 55.9 °F 46.2 °F 29.9 in SW 5.4 mph 9.8 mph 70% 0 in 91 W/m2
08:59 55.2 °F 46.4 °F 29.9 in SW 3.8 mph 9.8 mph 72% 0 in 190 W/m2
09:04 56.5 °F 47.1 °F 29.9 in SW 1.6 mph 7.6 mph 71% 0 in 267 W/m2
09:09 58.1 °F 48 °F 29.9 in WSW 3.1 mph 5.4 mph 69% 0 in 272 W/m2
09:12 58.5 °F 47.8 °F 29.9 in WSW 0.7 mph 4.5 mph 68% 0 in 180 W/m2
09:17 57.9 °F 47.5 °F 29.9 in West 3.1 mph 5.4 mph 68% 0 in 121 W/m2
09:22 55.9 °F 45.9 °F 29.9 in NW 5.4 mph 6.9 mph 69% 0 in 108 W/m2
09:27 55 °F 46.2 °F 29.9 in NW 3.8 mph 6.9 mph 72% 0 in 117 W/m2
09:32 54.9 °F 46.4 °F 29.9 in NW 2.2 mph 6.9 mph 73% 0 in 168 W/m2
09:37 55.9 °F 47.5 °F 29.9 in NW 4.5 mph 6 mph 73% 0 in 113 W/m2
09:42 55.4 °F 46.6 °F 29.9 in NNW 4.5 mph 6 mph 72% 0 in 111 W/m2
09:47 54.7 °F 46.2 °F 29.9 in NW 3.1 mph 6 mph 73% 0 in 127 W/m2
09:52 54.9 °F 46.4 °F 29.9 in WNW 1.6 mph 5.4 mph 73% 0 in 126 W/m2
09:57 54.9 °F 46.4 °F 29.9 in WNW 0.7 mph 4.5 mph 73% 0 in 111 W/m2
10:02 54.7 °F 46.2 °F 29.9 in NW 0.7 mph 3.8 mph 73% 0 in 136 W/m2
10:07 54.5 °F 46 °F 29.9 in NW 2.2 mph 3.8 mph 73% 0 in 136 W/m2
10:12 55.2 °F 46.8 °F 29.9 in NW 0.7 mph 3.8 mph 73% 0 in 138 W/m2
10:17 57 °F 47.7 °F 29.9 in Calm   3.1 mph 71% 0 in 142 W/m2
10:22 59.5 °F 48.6 °F 29.9 in NNW 2.2 mph 3.8 mph 67% 0 in 117 W/m2
10:27 59.4 °F 46.8 °F 29.9 in North 2.2 mph 6 mph 63% 0 in 104 W/m2
10:32 59 °F 46.4 °F 29.9 in North 1.6 mph 6 mph 63% 0 in 133 W/m2
10:37 59.9 °F 47.3 °F 29.9 in North 3.1 mph 7.6 mph 63% 0 in 110 W/m2
10:42 58.5 °F 45.9 °F 29.9 in North 5.4 mph 7.6 mph 63% 0 in 141 W/m2
10:47 58.6 °F 46.6 °F 29.9 in North 3.8 mph 6.9 mph 64% 0 in 202 W/m2
10:52 59 °F 46.4 °F 29.9 in NNE 3.8 mph 6.9 mph 63% 0 in 248 W/m2
10:57 58.6 °F 46.6 °F 29.9 in North 2.2 mph 6.9 mph 64% 0 in 291 W/m2
11:02 59 °F 46.4 °F 29.9 in NNE 6 mph 8.3 mph 63% 0 in 309 W/m2
11:07 58.1 °F 46.4 °F 29.9 in NNE 6 mph 8.3 mph 65% 0 in 307 W/m2
11:12 58.3 °F 46.9 °F 29.9 in NNE 4.5 mph 8.3 mph 66% 0 in 309 W/m2
11:17 58.1 °F 46.4 °F 29.9 in NNE 3.1 mph 8.3 mph 65% 0 in 306 W/m2
11:22 58.5 °F 46.8 °F 29.9 in North 6 mph 9.8 mph 65% 0 in 302 W/m2
11:27 59 °F 47.3 °F 29.9 in North 4.5 mph 9.8 mph 65% 0 in 295 W/m2
11:32 59.2 °F 46.6 °F 29.9 in North 5.4 mph 9.8 mph 63% 0 in 290 W/m2
11:37 59.7 °F 47.1 °F 29.9 in North 4.5 mph 9.8 mph 63% 0 in 279 W/m2
11:42 60.1 °F 47.5 °F 29.9 in North 3.1 mph 8.3 mph 63% 0 in 275 W/m2
11:47 60.3 °F 47.7 °F 29.9 in North 4.5 mph 9.2 mph 63% 0 in 265 W/m2
11:52 60.4 °F 47.5 °F 29.9 in North 3.8 mph 9.2 mph 62% 0 in 254 W/m2
11:57 60.3 °F 47.1 °F 29.9 in North 3.8 mph 9.8 mph 62% 0 in 238 W/m2
12:02 61.3 °F 47.3 °F 29.9 in North 2.2 mph 9.8 mph 60% 0 in 224 W/m2
12:07 61.9 °F 46.9 °F 29.9 in NNE 2.2 mph 5.4 mph 58% 0 in 205 W/m2
12:12 61.9 °F 46.9 °F 29.9 in North 3.8 mph 9.2 mph 58% 0 in 180 W/m2
12:17 62.2 °F 47.3 °F 29.9 in North 3.1 mph 9.2 mph 58% 0 in 162 W/m2
12:22 62.2 °F 46.8 °F 29.9 in NE 6 mph 9.8 mph 57% 0 in 139 W/m2
12:27 62.2 °F 47.3 °F 29.9 in NNE 3.1 mph 9.8 mph 58% 0 in 116 W/m2
12:32 62.4 °F 47.5 °F 29.9 in North 2.2 mph 9.8 mph 58% 0 in 105 W/m2
12:37 63.3 °F 46.9 °F 29.9 in North 5.4 mph 8.3 mph 55% 0 in 95 W/m2
12:42 63.1 °F 47.1 °F 29.8 in NNE 4.5 mph 10.7 mph 56% 0 in 94 W/m2
12:47 63.3 °F 47.5 °F 29.8 in NNE 3.8 mph 10.7 mph 56% 0 in 93 W/m2
12:52 64.4 °F 47.8 °F 29.8 in NNE 2.2 mph 7.6 mph 55% 0 in 93 W/m2
12:57 64.9 °F 46.9 °F 29.8 in NNE 2.2 mph 8.3 mph 52% 0 in 86 W/m2
13:02 64.8 °F 45.7 °F 29.8 in NNE 5.4 mph 9.8 mph 50% 0 in 79 W/m2
13:07 64.2 °F 45.7 °F 29.8 in North 4.5 mph 10.7 mph 51% 0 in 79 W/m2
13:12 64.6 °F 44.4 °F 29.8 in North 5.4 mph 10.7 mph 48% 0 in 80 W/m2
13:17 64.2 °F 44.1 °F 29.8 in North 3.8 mph 9.8 mph 48% 0 in 89 W/m2
13:22 63.9 °F 43.9 °F 29.8 in NNW 3.8 mph 9.8 mph 48% 0 in 124 W/m2
13:27 64.4 °F 44.8 °F 29.8 in NNW 1.6 mph 9.8 mph 49% 0 in 99 W/m2
13:32 64.6 °F 45.5 °F 29.8 in NNW 3.1 mph 7.6 mph 50% 0 in 101 W/m2
13:37 65.7 °F 46 °F 29.8 in North 1.6 mph 7.6 mph 49% 0 in 126 W/m2
13:42 67.5 °F 46 °F 29.8 in NNE 3.1 mph 6 mph 46% 0 in 136 W/m2
13:47 67.6 °F 45.7 °F 29.8 in North 3.8 mph 5.4 mph 45% 0 in 144 W/m2
13:52 68 °F 45.9 °F 29.8 in NNW 0.7 mph 5.4 mph 45% 0 in 149 W/m2
13:57 69.3 °F 45.9 °F 29.8 in North 3.1 mph 6 mph 43% 0 in 133 W/m2
14:02 66.6 °F 45.1 °F 29.8 in NW 1.6 mph 6 mph 46% 0 in 136 W/m2
14:07 66.7 °F 45.3 °F 29.8 in West 1.6 mph 5.4 mph 46% 0 in 142 W/m2
14:12 66.4 °F 42.1 °F 29.8 in NW 6 mph 10.7 mph 41% 0 in 111 W/m2
14:17 63.3 °F 40.5 °F 29.8 in NNW 6.9 mph 13.6 mph 43% 0 in 119 W/m2
14:22 62.1 °F 41.2 °F 29.8 in NNW 7.6 mph 15.2 mph 46% 0 in 134 W/m2
14:27 62.1 °F 41.5 °F 29.8 in NNW 7.6 mph 15.9 mph 47% 0 in 154 W/m2
14:32 62.6 °F 41 °F 29.8 in NW 6.9 mph 15.9 mph 45% 0 in 203 W/m2
14:37 62.4 °F 41.4 °F 29.8 in NNW 7.6 mph 15.2 mph 46% 0 in 222 W/m2
14:42 63 °F 41.4 °F 29.8 in NNW 7.6 mph 15.2 mph 45% 0 in 309 W/m2
14:47 63.9 °F 40.8 °F 29.8 in NNW 14.5 mph 19 mph 43% 0 in 305 W/m2
14:52 64.2 °F 41.9 °F 29.8 in NW 6.9 mph 19 mph 44% 0 in 285 W/m2
14:57 64 °F 41.2 °F 29.8 in NW 8.3 mph 15.2 mph 43% 0 in 265 W/m2
15:02 64.2 °F 41.4 °F 29.8 in NNW 12.1 mph 15.2 mph 43% 0 in 258 W/m2
15:07 64.6 °F 41.5 °F 29.8 in NW 8.3 mph 15.2 mph 43% 0 in 253 W/m2
15:12 63.9 °F 39.7 °F 29.8 in NW 6 mph 18.3 mph 41% 0 in 253 W/m2
15:17 63.1 °F 39.7 °F 29.8 in NW 6.9 mph 18.3 mph 42% 0 in 233 W/m2
15:22 63.5 °F 39.9 °F 29.8 in NNW 8.3 mph 18.3 mph 42% 0 in 230 W/m2
15:27 63.7 °F 40.3 °F 29.8 in NW 6 mph 15.2 mph 42% 0 in 206 W/m2
15:32 63.3 °F 39.9 °F 29.8 in NW 8.3 mph 14.5 mph 42% 0 in 179 W/m2
15:37 62.8 °F 39.9 °F 29.8 in NW 5.4 mph 13 mph 43% 0 in 162 W/m2
15:42 62.2 °F 40.1 °F 29.8 in NNW 8.3 mph 18.3 mph 44% 0 in 145 W/m2
15:47 62.1 °F 40.5 °F 29.8 in NNW 5.4 mph 18.3 mph 45% 0 in 139 W/m2
15:52 62.4 °F 40.3 °F 29.8 in NW 7.6 mph 13.6 mph 44% 0 in 117 W/m2
15:57 62.1 °F 40.5 °F 29.8 in NW 6.9 mph 12.1 mph 45% 0 in 95 W/m2
16:02 61.9 °F 40.3 °F 29.8 in NW 3.8 mph 14.5 mph 45% 0 in 78 W/m2
16:07 61.5 °F 39.9 °F 29.8 in NW 4.5 mph 14.5 mph 45% 0 in 63 W/m2
16:12 61 °F 40.1 °F 29.8 in NW 3.8 mph 14.5 mph 46% 0 in 52 W/m2
16:17 60.4 °F 40.1 °F 29.8 in NW 6.9 mph 12.1 mph 47% 0 in 45 W/m2
16:22 60.4 °F 41.2 °F 29.8 in NW 4.5 mph 11.4 mph 49% 0 in 40 W/m2
16:27 60.1 °F 40.8 °F 29.8 in NW 6 mph 9.2 mph 49% 0 in 35 W/m2
16:32 59.5 °F 40.5 °F 29.8 in NW 6.9 mph 9.8 mph 49% 0 in 31 W/m2
16:48 57.4 °F 40.8 °F 29.8 in NNW 4.5 mph 10.7 mph 54% 0 in 12 W/m2
16:53 56.8 °F 40.8 °F 29.8 in NNW 4.5 mph 9.2 mph 55% 0 in 9 W/m2
16:58 56.3 °F 40.8 °F 29.8 in NW 6 mph 10.7 mph 56% 0 in 5 W/m2
17:03 55.8 °F 40.3 °F 29.8 in NNW 3.1 mph 10.7 mph 56% 0 in 3 W/m2
17:08 55.4 °F 40.5 °F 29.8 in NNW 4.5 mph 8.3 mph 57% 0 in 1 W/m2
17:13 55 °F 40.5 °F 29.8 in NNW 6 mph 9.2 mph 58% 0 in 0 W/m2
17:18 54.9 °F 40.5 °F 29.8 in NNW 2.2 mph 9.2 mph 58% 0 in 0 W/m2
17:23 54.7 °F 40.3 °F 29.8 in NNW 4.5 mph 9.2 mph 58% 0 in 0 W/m2
17:28 54.5 °F 39.9 °F 29.8 in NNW 1.6 mph 9.2 mph 58% 0 in 0 W/m2
17:33 54.5 °F 39.9 °F 29.8 in North 6 mph 9.8 mph 58% 0 in 0 W/m2
17:38 54.5 °F 39.9 °F 29.8 in North 4.5 mph 9.8 mph 58% 0 in 0 W/m2
17:43 54.3 °F 40.3 °F 29.8 in North 3.1 mph 9.8 mph 59% 0 in 0 W/m2
17:48 54 °F 40.5 °F 29.8 in North 3.8 mph 6 mph 60% 0 in 0 W/m2
17:53 53.8 °F 40.6 °F 29.8 in North 4.5 mph 6.9 mph 61% 0 in 0 W/m2
17:58 53.8 °F 40.6 °F 29.8 in NNW 5.4 mph 9.2 mph 61% 0 in 0 W/m2
18:03 54 °F 40.5 °F 29.8 in NW 6 mph 9.8 mph 60% 0 in 0 W/m2
18:08 54 °F 40.5 °F 29.8 in NW 4.5 mph 9.8 mph 60% 0 in 0 W/m2
18:13 53.8 °F 40.3 °F 29.8 in NW 4.5 mph 9.8 mph 60% 0 in 0 W/m2
18:19 53.8 °F 40.6 °F 29.8 in NW 6.9 mph 9.8 mph 61% 0 in 0 W/m2
18:24 53.8 °F 40.6 °F 29.8 in NNW 7.6 mph 13 mph 61% 0 in 0 W/m2
18:29 54.1 °F 40.1 °F 29.8 in NNW 7.6 mph 14.5 mph 59% 0 in 0 W/m2
18:35 54.1 °F 40.1 °F 29.8 in NW 6.9 mph 14.5 mph 59% 0 in 0 W/m2
18:40 53.8 °F 40.6 °F 29.8 in NNW 3.8 mph 12.1 mph 61% 0 in 0 W/m2
18:45 53.2 °F 40.6 °F 29.8 in NNW 9.2 mph 12.1 mph 62% 0 in 0 W/m2
18:50 53.1 °F 40.5 °F 29.8 in North 6.9 mph 12.1 mph 62% 0 in 0 W/m2
18:55 53.6 °F 40.5 °F 29.7 in North 6 mph 14.5 mph 61% 0 in 0 W/m2
19:00 54.1 °F 40.1 °F 29.7 in North 8.3 mph 14.5 mph 59% 0 in 0 W/m2
19:05 54.3 °F 39.9 °F 29.7 in NNW 6 mph 13.6 mph 58% 0 in 0 W/m2
19:10 54.5 °F 39.6 °F 29.7 in NNW 7.6 mph 14.5 mph 57% 0 in 0 W/m2
19:15 54.5 °F 39.6 °F 29.7 in NW 4.5 mph 14.5 mph 57% 0 in 0 W/m2
19:20 54.1 °F 39.7 °F 29.7 in NNW 6.9 mph 13 mph 58% 0 in 0 W/m2
19:25 54.3 °F 39.9 °F 29.7 in NNW 3.8 mph 13 mph 58% 0 in 0 W/m2
19:30 54.1 °F 39.7 °F 29.7 in NNW 3.8 mph 12.1 mph 58% 0 in 0 W/m2
19:35 54 °F 39.9 °F 29.7 in NNW 4.5 mph 10.7 mph 59% 0 in 0 W/m2
19:40 53.8 °F 39.7 °F 29.7 in NNW 4.5 mph 10.7 mph 59% 0 in 0 W/m2
19:45 53.4 °F 40.6 °F 29.7 in NNW 3.8 mph 9.8 mph 62% 0 in 0 W/m2
19:50 53.4 °F 40.6 °F 29.7 in NNW 6.9 mph 9.8 mph 62% 0 in 0 W/m2
19:55 53.4 °F 40.6 °F 29.7 in NNW 5.4 mph 9.8 mph 62% 0 in 0 W/m2
20:00 53.4 °F 40.6 °F 29.7 in North 4.5 mph 9.8 mph 62% 0 in 0 W/m2
20:05 53.4 °F 40.6 °F 29.7 in North 5.4 mph 9.8 mph 62% 0 in 0 W/m2
20:10 53.4 °F 40.6 °F 29.7 in NNW 3.8 mph 9.8 mph 62% 0 in 0 W/m2
20:15 53.6 °F 40.5 °F 29.7 in NNW 3.8 mph 11.4 mph 61% 0 in 0 W/m2
20:20 54 °F 40.8 °F 29.7 in NNW 6 mph 13.6 mph 61% 0 in 0 W/m2
20:25 53.8 °F 40.6 °F 29.7 in North 3.8 mph 13.6 mph 61% 0 in 0 W/m2
20:30 53.8 °F 40.3 °F 29.7 in NNW 6.9 mph 9.8 mph 60% 0 in 0 W/m2
20:35 54.1 °F 40.1 °F 29.7 in NW 6 mph 11.4 mph 59% 0 in 0 W/m2
20:40 54.5 °F 39.6 °F 29.7 in NW 6 mph 13.6 mph 57% 0 in 0 W/m2
20:45 54.9 °F 39.6 °F 29.7 in NNW 8.3 mph 13.6 mph 56% 0 in 0 W/m2
20:50 54.7 °F 39.4 °F 29.7 in NNW 10.7 mph 16.8 mph 56% 0 in 0 W/m2
20:55 54.9 °F 39 °F 29.7 in NNW 9.8 mph 16.8 mph 55% 0 in 0 W/m2
21:00 54.7 °F 38.8 °F 29.7 in NNW 10.7 mph 15.2 mph 55% 0 in 0 W/m2
21:05 54.9 °F 39 °F 29.7 in NW 6.9 mph 17.4 mph 55% 0 in 0 W/m2
21:10 54.9 °F 39 °F 29.7 in NW 8.3 mph 17.4 mph 55% 0 in 0 W/m2
21:15 54.7 °F 38.8 °F 29.7 in NNW 4.5 mph 15.2 mph 55% 0 in 0 W/m2
21:21 54.9 °F 38.5 °F 29.7 in NNW 6.9 mph 14.5 mph 54% 0 in 0 W/m2
21:26 55 °F 38.7 °F 29.7 in NNW 11.4 mph 15.2 mph 54% 0 in 0 W/m2
21:31 54.7 °F 38.5 °F 29.7 in NW 7.6 mph 17.4 mph 54% 0 in 0 W/m2
21:36 54.7 °F 38.5 °F 29.7 in NNW 6.9 mph 17.4 mph 54% 0 in 0 W/m2
21:41 54.7 °F 38.5 °F 29.7 in NNW 7.6 mph 16.8 mph 54% 0 in 0 W/m2
21:46 54.7 °F 38.5 °F 29.7 in NNW 11.4 mph 18.3 mph 54% 0 in 0 W/m2
21:51 55 °F 38.1 °F 29.7 in NNW 11.4 mph 19.7 mph 53% 0 in 0 W/m2
21:56 55 °F 38.1 °F 29.7 in NW 9.2 mph 19.7 mph 53% 0 in 0 W/m2
22:01 54.9 °F 38.1 °F 29.7 in NW 4.5 mph 15.2 mph 53% 0 in 0 W/m2
22:20 54.3 °F 37.9 °F 29.7 in NW 6.9 mph 16.8 mph 54% 0 in 0 W/m2
22:25 54.1 °F 37.9 °F 29.7 in NNW 7.6 mph 12.1 mph 54% 0 in 0 W/m2
22:30 54.1 °F 38.3 °F 29.7 in North 3.8 mph 12.1 mph 55% 0 in 0 W/m2
22:35 54.1 °F 38.3 °F 29.7 in NNW 6.9 mph 13.6 mph 55% 0 in 0 W/m2
22:40 54.1 °F 38.3 °F 29.7 in NNW 3.8 mph 13.6 mph 55% 0 in 0 W/m2
22:45 54 °F 38.1 °F 29.7 in NNW 3.8 mph 10.7 mph 55% 0 in 0 W/m2
22:50 54 °F 38.1 °F 29.7 in NNW 4.5 mph 9.2 mph 55% 0 in 0 W/m2
22:55 54 °F 38.7 °F 29.7 in NNW 3.8 mph 9.2 mph 56% 0 in 0 W/m2
23:00 53.6 °F 38.3 °F 29.7 in North 4.5 mph 11.4 mph 56% 0 in 0 W/m2
23:05 53.8 °F 38.5 °F 29.7 in NNW 8.3 mph 15.9 mph 56% 0 in 0 W/m2
23:10 54.1 °F 38.3 °F 29.7 in NNW 6.9 mph 15.9 mph 55% 0 in 0 W/m2
23:15 54 °F 38.7 °F 29.7 in North 4.5 mph 12.1 mph 56% 0 in 0 W/m2
23:20 53.8 °F 38.5 °F 29.7 in NNW 6 mph 13.6 mph 56% 0 in 0 W/m2
23:25 54 °F 38.7 °F 29.7 in North 5.4 mph 13.6 mph 56% 0 in 0 W/m2
23:30 54 °F 38.7 °F 29.7 in North 6 mph 10.7 mph 56% 0 in 0 W/m2
23:35 54 °F 38.7 °F 29.7 in NNW 3.8 mph 9.2 mph 56% 0 in 0 W/m2
23:40 53.8 °F 38.8 °F 29.7 in NNW 3.1 mph 8.3 mph 57% 0 in 0 W/m2
23:45 53.8 °F 38.8 °F 29.7 in NNW 3.1 mph 9.2 mph 57% 0 in 0 W/m2
23:50 54 °F 39 °F 29.7 in North 5.4 mph 11.4 mph 57% 0 in 0 W/m2
23:55 53.8 °F 38.8 °F 29.7 in NNE 1.6 mph 11.4 mph 57% 0 in 0 W/m2
Northern Hawkes Bay. New Zealand Historic Data
Compliments of Weather Underground - 2.25 mb